createdAt,value
2018-05-17T00:01:40.090Z,16.88
2018-05-17T00:04:07.673Z,16.87
2018-05-17T00:06:35.256Z,16.85
2018-05-17T00:09:02.894Z,16.86
2018-05-17T00:11:30.655Z,16.83
2018-05-17T00:13:58.243Z,16.77
2018-05-17T00:16:26.097Z,16.78
2018-05-17T00:18:53.674Z,16.78
2018-05-17T00:21:21.253Z,16.74
2018-05-17T00:23:48.839Z,16.67
2018-05-17T00:26:16.432Z,16.70
2018-05-17T00:28:44.024Z,16.67
2018-05-17T00:31:11.804Z,16.69
2018-05-17T00:33:39.449Z,16.64
2018-05-17T00:36:07.020Z,16.66
2018-05-17T00:38:34.758Z,16.60
2018-05-17T00:41:02.577Z,16.55
2018-05-17T00:43:30.396Z,16.55
2018-05-17T00:45:58.093Z,16.54
2018-05-17T00:48:25.665Z,16.51
2018-05-17T00:50:53.329Z,16.49
2018-05-17T00:53:30.811Z,16.43
2018-05-17T00:55:58.529Z,16.40
2018-05-17T00:58:26.116Z,16.37
2018-05-17T01:00:53.704Z,16.33
2018-05-17T01:03:21.291Z,16.30
2018-05-17T01:05:48.877Z,16.20
2018-05-17T01:08:16.502Z,16.12
2018-05-17T01:10:44.103Z,15.95
2018-05-17T01:13:12.317Z,15.83
2018-05-17T01:15:40.167Z,15.84
2018-05-17T01:18:07.746Z,15.82
2018-05-17T01:20:35.335Z,15.78
2018-05-17T01:23:03.029Z,15.78
2018-05-17T01:25:30.718Z,15.78
2018-05-17T01:27:58.421Z,15.76
2018-05-17T01:30:26.114Z,15.74
2018-05-17T01:32:53.696Z,15.64
2018-05-17T01:35:21.514Z,15.58
2018-05-17T01:40:55.707Z,15.47
2018-05-17T01:43:23.296Z,15.38
2018-05-17T01:45:51.123Z,15.36
2018-05-17T01:48:18.746Z,15.33
2018-05-17T01:50:46.316Z,15.32
2018-05-17T01:53:13.952Z,15.35
2018-05-17T01:55:41.532Z,15.30
2018-05-17T01:58:09.108Z,15.29
2018-05-17T02:00:36.931Z,15.22
2018-05-17T02:03:04.537Z,15.25
2018-05-17T02:05:32.245Z,15.30
2018-05-17T02:08:00.629Z,15.33
2018-05-17T02:10:28.204Z,15.36
2018-05-17T02:12:56.024Z,15.41
2018-05-17T02:15:23.683Z,15.38
2018-05-17T02:17:51.440Z,15.32
2018-05-17T02:20:19.013Z,15.39
2018-05-17T02:22:46.657Z,15.37
2018-05-17T02:25:14.414Z,15.34
2018-05-17T02:27:42.001Z,15.29
2018-05-17T02:30:09.594Z,15.26
2018-05-17T02:32:37.172Z,15.18
2018-05-17T02:35:04.825Z,15.22
2018-05-17T02:37:32.409Z,15.14
2018-05-17T02:40:00.044Z,15.11
2018-05-17T02:42:27.839Z,15.10
2018-05-17T02:44:55.416Z,15.07
2018-05-17T02:47:23.053Z,15.03
2018-05-17T02:49:50.641Z,15.02
2018-05-17T02:52:18.225Z,14.97
2018-05-17T02:54:45.796Z,14.97
2018-05-17T02:57:13.647Z,14.92
2018-05-17T02:59:41.229Z,14.90
2018-05-17T03:02:08.817Z,14.83
2018-05-17T03:04:36.417Z,14.82
2018-05-17T03:07:04.219Z,14.81
2018-05-17T03:09:31.805Z,14.79
2018-05-17T03:11:59.556Z,14.72
2018-05-17T03:14:27.474Z,14.69
2018-05-17T03:16:55.050Z,14.71
2018-05-17T03:19:22.633Z,14.70
2018-05-17T03:21:50.202Z,14.74
2018-05-17T03:24:17.914Z,14.72
2018-05-17T03:26:45.507Z,14.78
2018-05-17T03:29:13.108Z,14.83
2018-05-17T03:31:41.002Z,14.95
2018-05-17T03:34:08.865Z,15.09
2018-05-17T03:36:36.440Z,15.22
2018-05-17T03:39:04.108Z,15.21
2018-05-17T03:41:31.874Z,15.28
2018-05-17T03:43:59.607Z,15.35
2018-05-17T03:46:27.191Z,15.37
2018-05-17T03:48:54.920Z,15.40
2018-05-17T03:51:22.529Z,15.39
2018-05-17T03:53:50.110Z,15.35
2018-05-17T03:56:17.760Z,15.36
2018-05-17T03:58:45.350Z,15.44
2018-05-17T04:01:24.720Z,15.47
2018-05-17T04:04:04.020Z,15.47
2018-05-17T04:06:42.917Z,15.43
2018-05-17T04:09:10.696Z,15.44
2018-05-17T04:11:38.292Z,15.45
2018-05-17T04:14:06.135Z,15.42
2018-05-17T04:16:33.860Z,15.44
2018-05-17T04:19:01.504Z,15.45
2018-05-17T04:21:29.286Z,15.48
2018-05-17T04:23:56.868Z,15.49
2018-05-17T04:26:24.508Z,15.56
2018-05-17T04:28:52.342Z,15.60
2018-05-17T04:31:20.161Z,15.63
2018-05-17T04:33:47.741Z,15.64
2018-05-17T04:36:15.482Z,15.70
2018-05-17T04:38:43.084Z,15.82
2018-05-17T04:41:10.656Z,15.90
2018-05-17T04:43:38.218Z,16.08
2018-05-17T04:46:05.801Z,16.20
2018-05-17T04:48:33.384Z,16.32
2018-05-17T04:51:00.959Z,16.49
2018-05-17T04:53:28.821Z,16.60
2018-05-17T04:55:56.396Z,16.71
2018-05-17T04:58:23.972Z,16.84
2018-05-17T05:00:51.556Z,17.00
2018-05-17T05:03:19.143Z,17.15
2018-05-17T05:05:46.790Z,17.30
2018-05-17T05:08:14.532Z,17.47
2018-05-17T05:10:42.347Z,17.51
2018-05-17T05:13:09.944Z,17.61
2018-05-17T05:15:37.540Z,17.72
2018-05-17T05:18:05.163Z,17.88
2018-05-17T05:20:32.819Z,18.02
2018-05-17T05:23:00.411Z,18.07
2018-05-17T05:25:28.128Z,18.18
2018-05-17T05:27:55.928Z,18.25
2018-05-17T05:30:23.584Z,18.39
2018-05-17T05:32:51.166Z,18.53
2018-05-17T05:35:18.931Z,18.66
2018-05-17T05:37:46.516Z,18.79
2018-05-17T05:40:14.119Z,18.83
2018-05-17T05:42:41.704Z,18.89
2018-05-17T05:45:09.340Z,19.03
2018-05-17T05:47:36.921Z,19.08
2018-05-17T05:50:04.604Z,19.04
2018-05-17T05:52:32.203Z,19.04
2018-05-17T05:54:59.812Z,19.27
2018-05-17T05:57:27.572Z,19.61
2018-05-17T05:59:55.300Z,20.01
2018-05-17T06:02:23.343Z,20.39
2018-05-17T06:04:51.150Z,20.50
2018-05-17T06:07:18.976Z,20.51
2018-05-17T06:09:46.564Z,20.44
2018-05-17T06:12:14.139Z,20.49
2018-05-17T06:14:41.802Z,20.73
2018-05-17T06:17:09.549Z,20.88
2018-05-17T06:19:37.356Z,21.22
2018-05-17T06:22:04.986Z,21.68
2018-05-17T06:24:32.793Z,22.03
2018-05-17T06:27:00.615Z,22.50
2018-05-17T06:29:28.217Z,22.79
2018-05-17T06:31:56.051Z,23.22
2018-05-17T06:34:23.644Z,23.79
2018-05-17T06:36:51.360Z,24.24
2018-05-17T06:39:18.940Z,24.37
2018-05-17T06:41:46.513Z,24.70
2018-05-17T06:44:14.338Z,24.69
2018-05-17T06:46:41.968Z,24.63
2018-05-17T06:49:09.877Z,23.91
2018-05-17T06:51:37.461Z,23.38
2018-05-17T06:54:05.047Z,23.04
2018-05-17T06:56:32.634Z,22.73
2018-05-17T06:59:00.449Z,22.60
2018-05-17T07:01:28.032Z,22.37
2018-05-17T07:03:55.608Z,22.16
2018-05-17T07:06:23.197Z,21.94
2018-05-17T07:08:50.788Z,22.20
2018-05-17T07:11:18.537Z,22.66
2018-05-17T07:13:46.131Z,22.83
2018-05-17T07:16:13.874Z,23.28
2018-05-17T07:18:41.883Z,23.63
2018-05-17T07:21:09.131Z,23.49
2018-05-17T07:23:36.690Z,23.26
2018-05-17T07:26:04.446Z,22.98
2018-05-17T07:28:32.020Z,22.98
2018-05-17T07:30:59.784Z,23.20
2018-05-17T07:33:27.404Z,23.34
2018-05-17T07:35:55.096Z,23.55
2018-05-17T07:38:22.678Z,23.63
2018-05-17T07:40:50.431Z,23.79
2018-05-17T07:43:18.016Z,24.01
2018-05-17T07:45:45.589Z,24.13
2018-05-17T07:48:13.409Z,24.21
2018-05-17T07:50:40.982Z,24.00
2018-05-17T07:53:08.758Z,23.56
2018-05-17T07:55:36.669Z,23.14
2018-05-17T07:58:04.383Z,22.92
2018-05-17T08:00:32.194Z,23.29
2018-05-17T08:02:59.720Z,23.89
2018-05-17T08:05:27.339Z,24.35
2018-05-17T08:07:54.920Z,24.89
2018-05-17T08:10:22.555Z,25.24
2018-05-17T08:12:50.302Z,26.10
2018-05-17T08:15:17.885Z,26.46
2018-05-17T08:17:45.478Z,26.75
2018-05-17T08:20:13.225Z,26.59
2018-05-17T08:22:41.065Z,26.32
2018-05-17T08:25:08.649Z,25.62
2018-05-17T08:27:36.501Z,25.65
2018-05-17T08:30:04.120Z,26.17
2018-05-17T08:32:31.704Z,26.55
2018-05-17T08:34:59.284Z,27.23
2018-05-17T08:37:26.869Z,27.79
2018-05-17T08:39:54.484Z,27.99
2018-05-17T08:42:22.444Z,28.05
2018-05-17T08:44:50.101Z,28.15
2018-05-17T08:47:17.689Z,27.69
2018-05-17T08:49:45.264Z,26.83
2018-05-17T08:52:13.082Z,26.57
2018-05-17T08:54:40.782Z,26.81
2018-05-17T08:57:08.364Z,27.16
2018-05-17T08:59:36.027Z,27.26
2018-05-17T09:02:03.772Z,27.01
2018-05-17T09:04:31.574Z,27.30
2018-05-17T09:06:59.301Z,27.49
2018-05-17T09:09:26.889Z,27.39
2018-05-17T09:11:54.509Z,27.33
2018-05-17T09:14:22.349Z,27.75
2018-05-17T09:16:50.169Z,28.45
2018-05-17T09:19:17.808Z,28.97
2018-05-17T09:21:45.396Z,28.93
2018-05-17T09:24:13.225Z,29.11
2018-05-17T09:26:40.812Z,29.13
2018-05-17T09:29:08.485Z,28.64
2018-05-17T09:31:36.034Z,28.37
2018-05-17T09:34:03.611Z,28.24
2018-05-17T09:36:31.290Z,28.35
2018-05-17T09:38:58.868Z,28.34
2018-05-17T09:41:26.526Z,28.05
2018-05-17T09:43:54.061Z,28.11
2018-05-17T09:46:21.651Z,27.96
2018-05-17T09:48:49.380Z,27.68
2018-05-17T09:51:17.218Z,27.45
2018-05-17T09:53:45.104Z,27.60
2018-05-17T09:56:12.694Z,28.52
2018-05-17T09:58:40.285Z,29.22
2018-05-17T10:01:08.071Z,29.64
2018-05-17T10:03:35.642Z,29.77
2018-05-17T10:06:03.240Z,29.77
2018-05-17T10:08:31.044Z,30.03
2018-05-17T10:10:58.756Z,29.87
2018-05-17T10:13:26.336Z,29.27
2018-05-17T10:15:54.100Z,29.61
2018-05-17T10:18:21.799Z,29.80
2018-05-17T10:20:49.388Z,29.47
2018-05-17T10:23:16.984Z,28.98
2018-05-17T10:25:44.773Z,28.41
2018-05-17T10:28:12.365Z,27.91
2018-05-17T10:30:40.208Z,27.87
2018-05-17T10:33:07.795Z,27.44
2018-05-17T10:35:35.463Z,27.06
2018-05-17T10:38:03.099Z,26.55
2018-05-17T10:40:30.765Z,26.46
2018-05-17T10:42:58.337Z,26.28
2018-05-17T10:45:26.078Z,26.09
2018-05-17T10:47:53.665Z,25.57
2018-05-17T10:50:21.263Z,25.37
2018-05-17T10:52:48.836Z,25.29
2018-05-17T10:55:16.489Z,25.37
2018-05-17T10:57:44.058Z,25.27
2018-05-17T11:00:11.667Z,25.17
2018-05-17T11:02:39.393Z,25.11
2018-05-17T11:05:06.880Z,25.18
2018-05-17T11:07:34.473Z,25.28
2018-05-17T11:10:02.053Z,25.42
2018-05-17T11:12:29.915Z,25.33
2018-05-17T11:14:57.504Z,25.39
2018-05-17T11:17:25.084Z,25.47
2018-05-17T11:19:52.668Z,25.55
2018-05-17T11:22:20.244Z,25.49
2018-05-17T11:24:48.004Z,25.56
2018-05-17T11:27:15.593Z,25.91
2018-05-17T11:29:43.443Z,26.24
2018-05-17T11:32:11.058Z,26.72
2018-05-17T11:34:38.633Z,27.03
2018-05-17T11:37:06.349Z,27.28
2018-05-17T11:39:34.113Z,27.32
2018-05-17T11:42:01.932Z,27.42
2018-05-17T11:44:29.510Z,27.12
2018-05-17T11:46:57.168Z,27.01
2018-05-17T11:49:24.766Z,26.91
2018-05-17T11:51:52.605Z,27.06
2018-05-17T11:54:20.424Z,26.99
2018-05-17T11:56:48.057Z,27.15
2018-05-17T11:59:15.700Z,27.24
2018-05-17T12:01:43.276Z,27.20
2018-05-17T12:04:10.861Z,27.39
2018-05-17T12:06:38.714Z,27.29
2018-05-17T12:09:06.392Z,27.22
2018-05-17T12:11:34.045Z,27.18
2018-05-17T12:14:01.676Z,27.21
2018-05-17T12:16:29.488Z,27.36
2018-05-17T12:18:57.274Z,27.44
2018-05-17T12:21:25.125Z,26.97
2018-05-17T12:23:52.951Z,26.77
2018-05-17T12:26:20.575Z,26.85
2018-05-17T12:28:48.176Z,26.83
2018-05-17T12:31:15.761Z,26.93
2018-05-17T12:33:43.368Z,26.77
2018-05-17T12:36:11.138Z,26.60
2018-05-17T12:38:38.720Z,26.56
2018-05-17T12:41:06.309Z,26.79
2018-05-17T12:43:33.893Z,27.00
2018-05-17T12:46:01.597Z,27.11
2018-05-17T12:48:29.256Z,27.16
2018-05-17T12:50:56.942Z,26.99
2018-05-17T12:53:24.763Z,26.92
2018-05-17T12:55:52.505Z,27.01
2018-05-17T12:58:20.097Z,26.89
2018-05-17T13:00:47.765Z,27.11
2018-05-17T13:03:15.537Z,26.96
2018-05-17T13:05:43.351Z,26.93
2018-05-17T13:08:10.940Z,27.01
2018-05-17T13:10:38.519Z,27.09
2018-05-17T13:13:06.355Z,27.11
2018-05-17T13:15:34.124Z,26.93
2018-05-17T13:18:01.949Z,26.93
2018-05-17T13:20:29.528Z,26.74
2018-05-17T13:22:57.127Z,26.61
2018-05-17T13:25:24.744Z,26.68
2018-05-17T13:27:52.717Z,26.94
2018-05-17T13:30:20.313Z,27.01
2018-05-17T13:32:48.152Z,26.77
2018-05-17T13:35:15.797Z,26.67
2018-05-17T13:37:43.385Z,26.40
2018-05-17T13:40:10.980Z,26.48
2018-05-17T13:42:38.570Z,25.94
2018-05-17T13:45:06.141Z,25.86
2018-05-17T13:47:33.798Z,25.68
2018-05-17T13:50:01.336Z,25.53
2018-05-17T13:52:29.020Z,25.45
2018-05-17T13:54:56.815Z,25.48
2018-05-17T13:57:24.393Z,25.29
2018-05-17T13:59:52.258Z,25.45
2018-05-17T14:02:19.927Z,25.65
2018-05-17T14:04:47.485Z,25.79
2018-05-17T14:07:15.308Z,25.87
2018-05-17T14:09:43.290Z,25.77
2018-05-17T14:12:11.057Z,25.85
2018-05-17T14:14:38.852Z,26.03
2018-05-17T14:17:06.458Z,26.20
2018-05-17T14:19:34.040Z,26.45
2018-05-17T14:22:01.615Z,26.73
2018-05-17T14:24:29.197Z,27.06
2018-05-17T14:26:56.842Z,27.39
2018-05-17T14:29:24.453Z,27.48
2018-05-17T14:31:52.037Z,27.27
2018-05-17T14:34:19.806Z,27.17
2018-05-17T14:36:47.396Z,27.09
2018-05-17T14:39:15.243Z,27.12
2018-05-17T14:41:42.951Z,26.78
2018-05-17T14:44:10.612Z,26.54
2018-05-17T14:46:38.192Z,26.29
2018-05-17T14:49:05.929Z,26.27
2018-05-17T14:51:33.528Z,26.20
2018-05-17T14:54:01.114Z,26.11
2018-05-17T14:56:28.869Z,25.83
2018-05-17T14:58:56.449Z,25.70
2018-05-17T15:01:24.081Z,25.55
2018-05-17T15:03:51.660Z,25.42
2018-05-17T15:06:19.328Z,25.42
2018-05-17T15:08:47.031Z,25.42
2018-05-17T15:11:14.962Z,25.25
2018-05-17T15:13:42.290Z,25.31
2018-05-17T15:16:10.005Z,25.36
2018-05-17T15:18:37.661Z,25.32
2018-05-17T15:21:05.268Z,25.37
2018-05-17T15:23:33.069Z,25.37
2018-05-17T15:26:00.887Z,25.34
2018-05-17T15:28:28.706Z,25.29
2018-05-17T15:30:56.312Z,25.00
2018-05-17T15:33:23.932Z,24.96
2018-05-17T15:35:51.712Z,24.75
2018-05-17T15:38:19.298Z,24.63
2018-05-17T15:40:46.872Z,24.51
2018-05-17T15:43:14.442Z,24.38
2018-05-17T15:45:42.012Z,24.37
2018-05-17T15:48:09.700Z,24.30
2018-05-17T15:50:37.228Z,24.19
2018-05-17T15:53:04.885Z,24.14
2018-05-17T15:55:32.505Z,24.02
2018-05-17T15:58:00.233Z,23.99
2018-05-17T16:00:28.004Z,23.85
2018-05-17T16:02:55.591Z,23.79
2018-05-17T16:05:23.191Z,23.63
2018-05-17T16:07:50.816Z,23.56
2018-05-17T16:10:18.456Z,23.34
2018-05-17T16:12:46.053Z,23.16
2018-05-17T16:15:13.789Z,23.04
2018-05-17T16:17:41.469Z,22.93
2018-05-17T16:20:09.061Z,22.86
2018-05-17T16:22:36.673Z,22.80
2018-05-17T16:25:04.522Z,22.77
2018-05-17T16:27:32.156Z,22.81
2018-05-17T16:29:59.737Z,22.85
2018-05-17T16:32:27.325Z,22.82
2018-05-17T16:34:54.998Z,22.80
2018-05-17T16:37:22.577Z,22.73
2018-05-17T16:39:50.266Z,22.70
2018-05-17T16:42:18.050Z,22.69
2018-05-17T16:44:45.866Z,22.55
2018-05-17T16:47:13.449Z,22.31
2018-05-17T16:49:41.028Z,22.16
2018-05-17T16:52:08.922Z,21.98
2018-05-17T16:54:36.514Z,21.92
2018-05-17T16:57:04.161Z,21.94
2018-05-17T16:59:31.741Z,21.88
2018-05-17T17:01:59.322Z,21.83
2018-05-17T17:04:26.964Z,21.75
2018-05-17T17:06:54.591Z,21.65
2018-05-17T17:09:22.182Z,21.53
2018-05-17T17:11:49.764Z,21.38
2018-05-17T17:14:17.379Z,21.21
2018-05-17T17:16:44.972Z,21.04
2018-05-17T17:19:12.567Z,20.91
2018-05-17T17:21:40.316Z,20.86
2018-05-17T17:24:07.936Z,20.79
2018-05-17T17:26:35.878Z,20.67
2018-05-17T17:29:03.461Z,20.54
2018-05-17T17:31:31.179Z,20.46
2018-05-17T17:33:58.896Z,20.43
2018-05-17T17:36:26.488Z,20.34
2018-05-17T17:38:54.058Z,20.35
2018-05-17T17:41:21.885Z,20.37
2018-05-17T17:43:49.505Z,20.36
2018-05-17T17:46:17.085Z,20.25
2018-05-17T17:48:44.723Z,20.13
2018-05-17T17:51:12.300Z,20.04
2018-05-17T17:53:39.888Z,19.92
2018-05-17T17:56:07.672Z,19.76
2018-05-17T17:58:35.253Z,19.56
2018-05-17T18:01:02.844Z,19.42
2018-05-17T18:03:30.419Z,19.27
2018-05-17T18:05:58.147Z,19.17
2018-05-17T18:08:25.956Z,19.15
2018-05-17T18:10:53.597Z,19.07
2018-05-17T18:13:21.180Z,19.02
2018-05-17T18:15:48.935Z,18.98
2018-05-17T18:18:16.588Z,18.93
2018-05-17T18:20:44.187Z,18.89
2018-05-17T18:23:11.896Z,18.83
2018-05-17T18:25:39.481Z,18.82
2018-05-17T18:28:07.365Z,18.85
2018-05-17T18:30:35.002Z,18.80
2018-05-17T18:33:02.648Z,18.69
2018-05-17T18:35:30.239Z,18.56
2018-05-17T18:37:58.058Z,18.48
2018-05-17T18:40:25.875Z,18.44
2018-05-17T18:42:53.473Z,18.47
2018-05-17T18:45:21.285Z,18.49
2018-05-17T18:47:49.040Z,18.49
2018-05-17T18:50:16.849Z,18.51
2018-05-17T18:52:44.633Z,18.52
2018-05-17T18:55:12.217Z,18.47
2018-05-17T18:57:39.826Z,18.48
2018-05-17T19:00:07.437Z,18.49
2018-05-17T19:02:35.130Z,18.50
2018-05-17T19:05:02.896Z,18.48
2018-05-17T19:07:30.588Z,18.40
2018-05-17T19:09:58.493Z,18.24
2018-05-17T19:12:26.146Z,18.19
2018-05-17T19:14:53.972Z,18.12
2018-05-17T19:17:21.664Z,18.05
2018-05-17T19:19:49.257Z,18.03
2018-05-17T19:22:17.125Z,17.97
2018-05-17T19:24:44.942Z,17.94
2018-05-17T19:27:12.559Z,17.98
2018-05-17T19:29:40.201Z,17.93
2018-05-17T19:32:07.788Z,17.92
2018-05-17T19:34:35.525Z,17.80
2018-05-17T19:37:03.363Z,17.59
2018-05-17T19:39:30.977Z,17.83
2018-05-17T19:41:58.565Z,17.84
2018-05-17T19:44:26.302Z,17.81
2018-05-17T19:46:54.079Z,17.85
2018-05-17T19:49:21.664Z,17.81
2018-05-17T19:51:49.911Z,17.77
2018-05-17T19:54:17.508Z,17.80
2018-05-17T19:56:45.280Z,17.79
2018-05-17T19:59:13.007Z,17.69
2018-05-17T20:01:40.804Z,17.56
2018-05-17T20:04:08.410Z,17.47
2018-05-17T20:06:35.995Z,17.37
2018-05-17T20:09:03.723Z,17.32
2018-05-17T20:11:31.493Z,17.31
2018-05-17T20:13:59.309Z,17.31
2018-05-17T20:16:26.902Z,17.37
2018-05-17T20:18:54.644Z,17.35
2018-05-17T20:21:22.463Z,17.38
2018-05-17T20:23:50.180Z,17.36
2018-05-17T20:26:17.788Z,17.42
2018-05-17T20:28:45.431Z,17.39
2018-05-17T20:31:13.040Z,17.39
2018-05-17T20:33:40.620Z,17.35
2018-05-17T20:36:08.204Z,17.26
2018-05-17T20:38:35.805Z,17.25
2018-05-17T20:41:03.416Z,17.20
2018-05-17T20:43:31.010Z,17.20
2018-05-17T20:45:58.777Z,17.19
2018-05-17T20:48:26.616Z,17.18
2018-05-17T20:50:54.202Z,17.14
2018-05-17T20:53:21.852Z,17.08
2018-05-17T20:55:49.671Z,17.04
2018-05-17T20:58:17.257Z,17.04
2018-05-17T21:00:45.079Z,17.00
2018-05-17T21:03:12.705Z,17.01
2018-05-17T21:05:40.452Z,17.02
2018-05-17T21:08:08.034Z,17.00
2018-05-17T21:10:35.637Z,16.96
2018-05-17T21:13:03.462Z,16.90
2018-05-17T21:15:31.319Z,16.91
2018-05-17T21:17:59.136Z,16.86
2018-05-17T21:20:26.725Z,16.86
2018-05-17T21:22:54.352Z,16.86
2018-05-17T21:25:21.975Z,16.83
2018-05-17T21:27:49.573Z,16.85
2018-05-17T21:30:17.148Z,16.77
2018-05-17T21:32:44.850Z,16.74
2018-05-17T21:35:12.476Z,16.71
2018-05-17T21:37:40.124Z,16.64
2018-05-17T21:40:07.732Z,16.59
2018-05-17T21:42:35.326Z,16.50
2018-05-17T21:45:03.135Z,16.45
2018-05-17T21:47:30.954Z,16.43
2018-05-17T21:49:58.558Z,16.46
2018-05-17T21:52:26.390Z,16.37
2018-05-17T21:54:54.130Z,16.32
2018-05-17T21:57:21.716Z,16.27
2018-05-17T21:59:49.483Z,16.30
2018-05-17T22:02:17.347Z,16.26
2018-05-17T22:04:45.094Z,16.29
2018-05-17T22:07:12.800Z,16.31
2018-05-17T22:09:40.397Z,16.31
2018-05-17T22:12:07.997Z,16.29
2018-05-17T22:14:35.759Z,16.28
2018-05-17T22:17:03.342Z,16.25
2018-05-17T22:19:30.941Z,16.28
2018-05-17T22:21:58.584Z,16.23
2018-05-17T22:24:26.325Z,16.17
2018-05-17T22:26:53.899Z,16.18
2018-05-17T22:29:21.662Z,16.10
2018-05-17T22:31:49.254Z,16.15
2018-05-17T22:34:16.853Z,16.14
2018-05-17T22:36:44.431Z,16.15
2018-05-17T22:39:12.149Z,16.14
2018-05-17T22:41:40.273Z,16.17
2018-05-17T22:44:07.904Z,16.16
2018-05-17T22:46:35.504Z,16.15
2018-05-17T22:49:03.103Z,16.16
2018-05-17T22:51:30.696Z,16.11
2018-05-17T22:53:58.316Z,16.09
2018-05-17T22:56:37.680Z,16.07
2018-05-17T22:59:05.260Z,16.04
2018-05-17T23:01:33.039Z,16.02
2018-05-17T23:04:00.669Z,16.00
2018-05-17T23:06:28.476Z,15.97
2018-05-17T23:08:56.084Z,15.94
2018-05-17T23:11:23.913Z,15.83
2018-05-17T23:13:51.577Z,15.88
2018-05-17T23:16:19.349Z,15.87
2018-05-17T23:18:46.944Z,15.84
2018-05-17T23:21:14.528Z,15.88
2018-05-17T23:23:42.196Z,15.89
2018-05-17T23:26:09.865Z,15.88
2018-05-17T23:28:37.485Z,15.85
2018-05-17T23:31:05.111Z,15.84
2018-05-17T23:33:32.894Z,15.77
2018-05-17T23:36:00.496Z,15.70
2018-05-17T23:38:28.080Z,15.68
2018-05-17T23:41:16.363Z,15.68
2018-05-17T23:43:43.948Z,15.61
2018-05-17T23:46:11.544Z,15.55
2018-05-17T23:48:39.357Z,15.51
2018-05-17T23:51:07.053Z,15.48
2018-05-17T23:53:34.660Z,15.42
2018-05-17T23:56:02.254Z,15.34
2018-05-17T23:58:29.858Z,15.31
